sensor_id;sensor_type;location;lat;lon;timestamp;P1;durP1;ratioP1;P2;durP2;ratioP2
47337;SDS011;33069;51.970;5.892;2023-07-09T00:01:55;27.20;;;24.58;;
47337;SDS011;33069;51.970;5.892;2023-07-09T00:04:21;28.33;;;25.63;;
47337;SDS011;33069;51.970;5.892;2023-07-09T00:06:47;28.30;;;24.05;;
47337;SDS011;33069;51.970;5.892;2023-07-09T00:09:14;27.25;;;24.45;;
47337;SDS011;33069;51.970;5.892;2023-07-09T00:11:44;26.27;;;23.67;;
47337;SDS011;33069;51.970;5.892;2023-07-09T00:14:11;28.88;;;24.65;;
47337;SDS011;33069;51.970;5.892;2023-07-09T00:16:40;29.55;;;26.50;;
47337;SDS011;33069;51.970;5.892;2023-07-09T00:19:15;31.40;;;25.17;;
47337;SDS011;33069;51.970;5.892;2023-07-09T00:21:44;27.55;;;24.95;;
47337;SDS011;33069;51.970;5.892;2023-07-09T00:24:12;27.52;;;24.92;;
47337;SDS011;33069;51.970;5.892;2023-07-09T00:26:38;28.90;;;25.75;;
47337;SDS011;33069;51.970;5.892;2023-07-09T00:29:09;27.08;;;24.33;;
47337;SDS011;33069;51.970;5.892;2023-07-09T00:31:36;27.35;;;24.67;;
47337;SDS011;33069;51.970;5.892;2023-07-09T00:34:08;27.35;;;24.23;;
47337;SDS011;33069;51.970;5.892;2023-07-09T00:36:37;27.58;;;24.85;;
47337;SDS011;33069;51.970;5.892;2023-07-09T00:39:03;28.45;;;24.67;;
47337;SDS011;33069;51.970;5.892;2023-07-09T00:41:34;28.48;;;25.40;;
47337;SDS011;33069;51.970;5.892;2023-07-09T00:49:31;26.92;;;24.23;;
47337;SDS011;33069;51.970;5.892;2023-07-09T00:52:01;27.30;;;24.42;;
47337;SDS011;33069;51.970;5.892;2023-07-09T00:54:43;26.17;;;23.52;;
47337;SDS011;33069;51.970;5.892;2023-07-09T00:57:13;26.15;;;23.35;;
47337;SDS011;33069;51.970;5.892;2023-07-09T00:59:45;27.15;;;24.25;;
47337;SDS011;33069;51.970;5.892;2023-07-09T01:02:14;32.20;;;26.00;;
47337;SDS011;33069;51.970;5.892;2023-07-09T01:04:40;26.20;;;23.40;;
47337;SDS011;33069;51.970;5.892;2023-07-09T01:07:07;25.38;;;22.85;;
47337;SDS011;33069;51.970;5.892;2023-07-09T01:09:34;26.95;;;23.55;;
47337;SDS011;33069;51.970;5.892;2023-07-09T01:12:06;26.90;;;24.05;;
47337;SDS011;33069;51.970;5.892;2023-07-09T01:14:34;25.42;;;22.83;;
47337;SDS011;33069;51.970;5.892;2023-07-09T01:17:03;23.48;;;21.23;;
47337;SDS011;33069;51.970;5.892;2023-07-09T01:19:37;26.95;;;24.13;;
47337;SDS011;33069;51.970;5.892;2023-07-09T01:22:12;26.08;;;23.48;;
47337;SDS011;33069;51.970;5.892;2023-07-09T01:27:40;26.48;;;23.73;;
47337;SDS011;33069;51.970;5.892;2023-07-09T01:30:10;25.50;;;22.88;;
47337;SDS011;33069;51.970;5.892;2023-07-09T01:32:42;27.85;;;23.02;;
47337;SDS011;33069;51.970;5.892;2023-07-09T01:35:12;26.85;;;23.25;;
47337;SDS011;33069;51.970;5.892;2023-07-09T01:37:41;24.13;;;21.65;;
47337;SDS011;33069;51.970;5.892;2023-07-09T01:40:09;28.80;;;25.85;;
47337;SDS011;33069;51.970;5.892;2023-07-09T01:42:36;25.38;;;22.77;;
47337;SDS011;33069;51.970;5.892;2023-07-09T01:45:04;23.10;;;20.80;;
47337;SDS011;33069;51.970;5.892;2023-07-09T01:47:31;24.67;;;22.05;;
47337;SDS011;33069;51.970;5.892;2023-07-09T01:49:58;24.33;;;21.80;;
47337;SDS011;33069;51.970;5.892;2023-07-09T01:52:26;24.00;;;21.58;;
47337;SDS011;33069;51.970;5.892;2023-07-09T01:54:54;24.13;;;21.83;;
47337;SDS011;33069;51.970;5.892;2023-07-09T01:57:24;24.55;;;22.05;;
47337;SDS011;33069;51.970;5.892;2023-07-09T01:59:58;29.33;;;23.45;;
47337;SDS011;33069;51.970;5.892;2023-07-09T02:02:36;25.10;;;22.50;;
47337;SDS011;33069;51.970;5.892;2023-07-09T02:05:08;23.90;;;21.50;;
47337;SDS011;33069;51.970;5.892;2023-07-09T02:07:36;23.05;;;20.83;;
47337;SDS011;33069;51.970;5.892;2023-07-09T02:10:02;24.45;;;21.90;;
47337;SDS011;33069;51.970;5.892;2023-07-09T02:12:29;24.75;;;22.10;;
47337;SDS011;33069;51.970;5.892;2023-07-09T02:14:55;25.50;;;22.52;;
47337;SDS011;33069;51.970;5.892;2023-07-09T02:17:21;30.10;;;21.90;;
47337;SDS011;33069;51.970;5.892;2023-07-09T02:19:47;25.98;;;22.45;;
47337;SDS011;33069;51.970;5.892;2023-07-09T02:22:13;26.15;;;22.05;;
47337;SDS011;33069;51.970;5.892;2023-07-09T02:24:40;24.58;;;22.05;;
47337;SDS011;33069;51.970;5.892;2023-07-09T02:27:07;28.02;;;22.60;;
47337;SDS011;33069;51.970;5.892;2023-07-09T02:29:36;24.88;;;21.70;;
47337;SDS011;33069;51.970;5.892;2023-07-09T02:32:03;25.88;;;22.35;;
47337;SDS011;33069;51.970;5.892;2023-07-09T02:34:30;24.38;;;21.60;;
47337;SDS011;33069;51.970;5.892;2023-07-09T02:36:57;27.27;;;23.63;;
47337;SDS011;33069;51.970;5.892;2023-07-09T02:39:24;24.92;;;22.27;;
47337;SDS011;33069;51.970;5.892;2023-07-09T02:41:51;26.75;;;23.92;;
47337;SDS011;33069;51.970;5.892;2023-07-09T02:44:17;25.08;;;20.90;;
47337;SDS011;33069;51.970;5.892;2023-07-09T02:46:44;24.92;;;22.25;;
47337;SDS011;33069;51.970;5.892;2023-07-09T02:49:11;23.80;;;21.17;;
47337;SDS011;33069;51.970;5.892;2023-07-09T02:51:38;22.75;;;20.65;;
47337;SDS011;33069;51.970;5.892;2023-07-09T02:54:05;24.48;;;21.02;;
47337;SDS011;33069;51.970;5.892;2023-07-09T02:56:32;24.05;;;21.55;;
47337;SDS011;33069;51.970;5.892;2023-07-09T02:58:58;24.67;;;21.92;;
47337;SDS011;33069;51.970;5.892;2023-07-09T03:01:24;24.98;;;22.25;;
47337;SDS011;33069;51.970;5.892;2023-07-09T03:03:53;27.23;;;22.70;;
47337;SDS011;33069;51.970;5.892;2023-07-09T03:06:20;26.73;;;23.92;;
47337;SDS011;33069;51.970;5.892;2023-07-09T03:08:47;26.25;;;23.13;;
47337;SDS011;33069;51.970;5.892;2023-07-09T03:11:14;23.98;;;21.35;;
47337;SDS011;33069;51.970;5.892;2023-07-09T03:13:41;24.60;;;22.05;;
47337;SDS011;33069;51.970;5.892;2023-07-09T03:16:07;24.95;;;22.50;;
47337;SDS011;33069;51.970;5.892;2023-07-09T03:18:33;24.92;;;22.35;;
47337;SDS011;33069;51.970;5.892;2023-07-09T03:20:59;25.17;;;22.60;;
47337;SDS011;33069;51.970;5.892;2023-07-09T03:23:26;23.95;;;21.55;;
47337;SDS011;33069;51.970;5.892;2023-07-09T03:25:54;27.02;;;24.27;;
47337;SDS011;33069;51.970;5.892;2023-07-09T03:28:21;25.40;;;22.38;;
47337;SDS011;33069;51.970;5.892;2023-07-09T03:30:47;26.30;;;23.70;;
47337;SDS011;33069;51.970;5.892;2023-07-09T03:33:15;25.27;;;22.52;;
47337;SDS011;33069;51.970;5.892;2023-07-09T03:35:42;27.25;;;24.45;;
47337;SDS011;33069;51.970;5.892;2023-07-09T03:38:09;27.25;;;24.45;;
47337;SDS011;33069;51.970;5.892;2023-07-09T03:40:36;28.65;;;25.02;;
47337;SDS011;33069;51.970;5.892;2023-07-09T03:43:04;28.27;;;25.63;;
47337;SDS011;33069;51.970;5.892;2023-07-09T03:45:31;27.65;;;23.77;;
47337;SDS011;33069;51.970;5.892;2023-07-09T03:47:58;27.38;;;24.48;;
47337;SDS011;33069;51.970;5.892;2023-07-09T03:50:25;27.35;;;24.00;;
47337;SDS011;33069;51.970;5.892;2023-07-09T03:52:52;27.60;;;24.83;;
47337;SDS011;33069;51.970;5.892;2023-07-09T03:55:18;27.65;;;24.30;;
47337;SDS011;33069;51.970;5.892;2023-07-09T03:57:45;29.40;;;25.15;;
47337;SDS011;33069;51.970;5.892;2023-07-09T04:00:11;25.60;;;23.20;;
47337;SDS011;33069;51.970;5.892;2023-07-09T04:02:38;25.80;;;23.20;;
47337;SDS011;33069;51.970;5.892;2023-07-09T04:05:05;27.23;;;23.60;;
47337;SDS011;33069;51.970;5.892;2023-07-09T04:07:34;25.25;;;22.63;;
47337;SDS011;33069;51.970;5.892;2023-07-09T04:10:00;27.65;;;24.50;;
47337;SDS011;33069;51.970;5.892;2023-07-09T04:12:27;26.50;;;23.75;;
47337;SDS011;33069;51.970;5.892;2023-07-09T04:14:53;28.00;;;25.20;;
47337;SDS011;33069;51.970;5.892;2023-07-09T04:17:19;25.40;;;22.95;;
47337;SDS011;33069;51.970;5.892;2023-07-09T04:19:47;26.30;;;23.55;;
47337;SDS011;33069;51.970;5.892;2023-07-09T04:22:13;27.00;;;22.73;;
47337;SDS011;33069;51.970;5.892;2023-07-09T04:24:39;26.70;;;23.95;;
47337;SDS011;33069;51.970;5.892;2023-07-09T04:27:05;26.95;;;24.13;;
47337;SDS011;33069;51.970;5.892;2023-07-09T04:29:32;27.85;;;24.85;;
47337;SDS011;33069;51.970;5.892;2023-07-09T04:32:13;29.65;;;26.33;;
47337;SDS011;33069;51.970;5.892;2023-07-09T04:34:41;28.58;;;25.33;;
47337;SDS011;33069;51.970;5.892;2023-07-09T04:37:08;27.40;;;24.48;;
47337;SDS011;33069;51.970;5.892;2023-07-09T04:39:37;27.98;;;25.05;;
47337;SDS011;33069;51.970;5.892;2023-07-09T04:42:05;26.88;;;24.05;;
47337;SDS011;33069;51.970;5.892;2023-07-09T04:44:31;29.95;;;24.63;;
47337;SDS011;33069;51.970;5.892;2023-07-09T04:46:58;28.23;;;24.67;;
47337;SDS011;33069;51.970;5.892;2023-07-09T04:49:24;27.70;;;24.38;;
47337;SDS011;33069;51.970;5.892;2023-07-09T04:51:50;28.92;;;26.13;;
47337;SDS011;33069;51.970;5.892;2023-07-09T04:54:16;28.83;;;25.65;;
47337;SDS011;33069;51.970;5.892;2023-07-09T04:56:42;28.30;;;25.23;;
47337;SDS011;33069;51.970;5.892;2023-07-09T04:59:11;29.00;;;25.98;;
47337;SDS011;33069;51.970;5.892;2023-07-09T05:01:38;28.25;;;25.50;;
47337;SDS011;33069;51.970;5.892;2023-07-09T05:04:04;29.35;;;26.25;;
47337;SDS011;33069;51.970;5.892;2023-07-09T05:06:30;29.17;;;26.10;;
47337;SDS011;33069;51.970;5.892;2023-07-09T05:08:56;30.20;;;26.83;;
47337;SDS011;33069;51.970;5.892;2023-07-09T05:11:22;29.65;;;26.30;;
47337;SDS011;33069;51.970;5.892;2023-07-09T05:13:48;29.90;;;26.80;;
47337;SDS011;33069;51.970;5.892;2023-07-09T05:16:14;31.13;;;27.98;;
47337;SDS011;33069;51.970;5.892;2023-07-09T05:18:40;28.67;;;25.88;;
47337;SDS011;33069;51.970;5.892;2023-07-09T05:21:07;30.63;;;27.35;;
47337;SDS011;33069;51.970;5.892;2023-07-09T05:23:33;28.63;;;25.63;;
47337;SDS011;33069;51.970;5.892;2023-07-09T05:25:59;29.00;;;26.25;;
47337;SDS011;33069;51.970;5.892;2023-07-09T05:28:27;30.67;;;27.60;;
47337;SDS011;33069;51.970;5.892;2023-07-09T05:30:54;28.80;;;25.98;;
47337;SDS011;33069;51.970;5.892;2023-07-09T05:33:20;30.73;;;27.67;;
47337;SDS011;33069;51.970;5.892;2023-07-09T05:35:46;31.15;;;28.13;;
47337;SDS011;33069;51.970;5.892;2023-07-09T05:38:13;32.70;;;29.35;;
47337;SDS011;33069;51.970;5.892;2023-07-09T05:40:40;32.72;;;28.70;;
47337;SDS011;33069;51.970;5.892;2023-07-09T05:43:08;31.33;;;28.33;;
47337;SDS011;33069;51.970;5.892;2023-07-09T05:45:35;31.77;;;28.67;;
47337;SDS011;33069;51.970;5.892;2023-07-09T05:48:01;32.67;;;29.35;;
47337;SDS011;33069;51.970;5.892;2023-07-09T05:50:28;31.70;;;28.38;;
47337;SDS011;33069;51.970;5.892;2023-07-09T05:52:54;32.67;;;29.25;;
47337;SDS011;33069;51.970;5.892;2023-07-09T05:55:20;32.03;;;28.80;;
47337;SDS011;33069;51.970;5.892;2023-07-09T05:57:46;31.98;;;28.88;;
47337;SDS011;33069;51.970;5.892;2023-07-09T06:00:13;33.40;;;30.10;;
47337;SDS011;33069;51.970;5.892;2023-07-09T06:02:39;33.20;;;29.80;;
47337;SDS011;33069;51.970;5.892;2023-07-09T06:05:06;33.78;;;30.35;;
47337;SDS011;33069;51.970;5.892;2023-07-09T06:07:35;33.95;;;30.40;;
47337;SDS011;33069;51.970;5.892;2023-07-09T06:10:01;34.50;;;30.48;;
47337;SDS011;33069;51.970;5.892;2023-07-09T06:12:27;34.58;;;29.83;;
47337;SDS011;33069;51.970;5.892;2023-07-09T06:14:53;33.05;;;29.52;;
47337;SDS011;33069;51.970;5.892;2023-07-09T06:17:19;32.42;;;29.13;;
47337;SDS011;33069;51.970;5.892;2023-07-09T06:19:45;33.97;;;30.38;;
47337;SDS011;33069;51.970;5.892;2023-07-09T06:22:11;32.28;;;28.75;;
47337;SDS011;33069;51.970;5.892;2023-07-09T06:24:37;32.15;;;28.75;;
47337;SDS011;33069;51.970;5.892;2023-07-09T06:27:03;32.60;;;29.27;;
47337;SDS011;33069;51.970;5.892;2023-07-09T06:29:30;32.03;;;28.92;;
47337;SDS011;33069;51.970;5.892;2023-07-09T06:31:56;32.80;;;29.27;;
47337;SDS011;33069;51.970;5.892;2023-07-09T06:34:22;32.95;;;29.42;;
47337;SDS011;33069;51.970;5.892;2023-07-09T06:36:48;31.30;;;28.10;;
47337;SDS011;33069;51.970;5.892;2023-07-09T06:39:15;32.85;;;29.25;;
47337;SDS011;33069;51.970;5.892;2023-07-09T06:41:41;32.03;;;28.65;;
47337;SDS011;33069;51.970;5.892;2023-07-09T06:44:08;32.85;;;29.42;;
47337;SDS011;33069;51.970;5.892;2023-07-09T06:46:35;31.67;;;28.48;;
47337;SDS011;33069;51.970;5.892;2023-07-09T06:49:02;31.60;;;28.30;;
47337;SDS011;33069;51.970;5.892;2023-07-09T06:51:30;32.13;;;29.00;;
47337;SDS011;33069;51.970;5.892;2023-07-09T06:53:57;30.52;;;27.73;;
47337;SDS011;33069;51.970;5.892;2023-07-09T06:56:23;31.80;;;28.67;;
47337;SDS011;33069;51.970;5.892;2023-07-09T06:58:49;33.35;;;28.15;;
47337;SDS011;33069;51.970;5.892;2023-07-09T07:01:15;30.95;;;27.60;;
47337;SDS011;33069;51.970;5.892;2023-07-09T07:03:41;30.17;;;27.27;;
47337;SDS011;33069;51.970;5.892;2023-07-09T07:06:08;30.80;;;27.50;;
47337;SDS011;33069;51.970;5.892;2023-07-09T07:08:35;29.80;;;26.55;;
47337;SDS011;33069;51.970;5.892;2023-07-09T07:11:01;30.80;;;27.70;;
47337;SDS011;33069;51.970;5.892;2023-07-09T07:13:36;30.63;;;27.75;;
47337;SDS011;33069;51.970;5.892;2023-07-09T07:16:05;31.30;;;27.70;;
47337;SDS011;33069;51.970;5.892;2023-07-09T07:18:35;30.48;;;27.42;;
47337;SDS011;33069;51.970;5.892;2023-07-09T07:21:02;33.03;;;27.75;;
47337;SDS011;33069;51.970;5.892;2023-07-09T07:23:28;30.15;;;26.90;;
47337;SDS011;33069;51.970;5.892;2023-07-09T07:25:55;29.73;;;26.95;;
47337;SDS011;33069;51.970;5.892;2023-07-09T07:28:21;30.55;;;27.48;;
47337;SDS011;33069;51.970;5.892;2023-07-09T07:30:57;28.85;;;26.35;;
47337;SDS011;33069;51.970;5.892;2023-07-09T07:33:27;30.48;;;27.60;;
47337;SDS011;33069;51.970;5.892;2023-07-09T07:35:53;34.95;;;27.23;;
47337;SDS011;33069;51.970;5.892;2023-07-09T07:38:20;30.10;;;27.17;;
47337;SDS011;33069;51.970;5.892;2023-07-09T07:40:46;27.25;;;24.75;;
47337;SDS011;33069;51.970;5.892;2023-07-09T07:43:12;28.58;;;25.67;;
47337;SDS011;33069;51.970;5.892;2023-07-09T07:45:41;28.05;;;25.35;;
47337;SDS011;33069;51.970;5.892;2023-07-09T07:48:08;30.05;;;27.05;;
47337;SDS011;33069;51.970;5.892;2023-07-09T07:50:35;28.73;;;25.95;;
47337;SDS011;33069;51.970;5.892;2023-07-09T07:53:01;28.17;;;25.08;;
47337;SDS011;33069;51.970;5.892;2023-07-09T07:55:28;28.58;;;25.73;;
47337;SDS011;33069;51.970;5.892;2023-07-09T07:57:54;29.48;;;26.27;;
47337;SDS011;33069;51.970;5.892;2023-07-09T08:00:22;28.38;;;25.38;;
47337;SDS011;33069;51.970;5.892;2023-07-09T08:02:48;28.23;;;25.58;;
47337;SDS011;33069;51.970;5.892;2023-07-09T08:05:14;29.50;;;26.45;;
47337;SDS011;33069;51.970;5.892;2023-07-09T08:07:41;29.70;;;26.83;;
47337;SDS011;33069;51.970;5.892;2023-07-09T08:10:07;30.02;;;26.92;;
47337;SDS011;33069;51.970;5.892;2023-07-09T08:12:34;28.50;;;25.77;;
47337;SDS011;33069;51.970;5.892;2023-07-09T08:15:00;28.95;;;26.30;;
47337;SDS011;33069;51.970;5.892;2023-07-09T08:17:26;29.90;;;26.80;;
47337;SDS011;33069;51.970;5.892;2023-07-09T08:19:53;30.17;;;27.35;;
47337;SDS011;33069;51.970;5.892;2023-07-09T08:22:20;29.58;;;26.75;;
47337;SDS011;33069;51.970;5.892;2023-07-09T08:24:50;29.10;;;26.30;;
47337;SDS011;33069;51.970;5.892;2023-07-09T08:27:17;33.22;;;26.52;;
47337;SDS011;33069;51.970;5.892;2023-07-09T08:29:44;28.23;;;25.92;;
47337;SDS011;33069;51.970;5.892;2023-07-09T08:32:11;29.08;;;26.33;;
47337;SDS011;33069;51.970;5.892;2023-07-09T08:34:38;28.70;;;26.02;;
47337;SDS011;33069;51.970;5.892;2023-07-09T08:37:05;28.85;;;26.25;;
47337;SDS011;33069;51.970;5.892;2023-07-09T08:39:32;29.58;;;26.95;;
47337;SDS011;33069;51.970;5.892;2023-07-09T08:42:03;28.27;;;25.92;;
47337;SDS011;33069;51.970;5.892;2023-07-09T08:47:02;29.85;;;26.80;;
47337;SDS011;33069;51.970;5.892;2023-07-09T08:49:50;28.63;;;26.02;;
47337;SDS011;33069;51.970;5.892;2023-07-09T08:52:47;29.30;;;26.88;;
47337;SDS011;33069;51.970;5.892;2023-07-09T08:55:16;27.98;;;25.55;;
47337;SDS011;33069;51.970;5.892;2023-07-09T08:58:05;28.50;;;26.10;;
47337;SDS011;33069;51.970;5.892;2023-07-09T09:00:33;28.17;;;26.00;;
47337;SDS011;33069;51.970;5.892;2023-07-09T09:03:11;30.08;;;27.50;;
47337;SDS011;33069;51.970;5.892;2023-07-09T09:05:43;29.00;;;26.63;;
47337;SDS011;33069;51.970;5.892;2023-07-09T09:10:46;28.17;;;25.67;;
47337;SDS011;33069;51.970;5.892;2023-07-09T09:13:16;29.50;;;27.05;;
47337;SDS011;33069;51.970;5.892;2023-07-09T09:15:45;28.30;;;25.80;;
47337;SDS011;33069;51.970;5.892;2023-07-09T09:18:23;27.80;;;25.50;;
47337;SDS011;33069;51.970;5.892;2023-07-09T09:21:36;28.13;;;25.65;;
47337;SDS011;33069;51.970;5.892;2023-07-09T09:23:52;27.30;;;24.70;;
47337;SDS011;33069;51.970;5.892;2023-07-09T09:26:33;27.45;;;24.83;;
47337;SDS011;33069;51.970;5.892;2023-07-09T09:29:07;27.25;;;24.90;;
47337;SDS011;33069;51.970;5.892;2023-07-09T09:31:41;26.40;;;24.10;;
47337;SDS011;33069;51.970;5.892;2023-07-09T09:34:19;27.48;;;25.27;;
47337;SDS011;33069;51.970;5.892;2023-07-09T09:36:54;26.08;;;23.95;;
47337;SDS011;33069;51.970;5.892;2023-07-09T09:39:25;26.35;;;24.20;;
47337;SDS011;33069;51.970;5.892;2023-07-09T09:41:55;26.55;;;24.23;;
47337;SDS011;33069;51.970;5.892;2023-07-09T09:44:27;27.25;;;24.98;;
47337;SDS011;33069;51.970;5.892;2023-07-09T09:46:57;26.00;;;23.60;;
47337;SDS011;33069;51.970;5.892;2023-07-09T09:49:24;26.35;;;23.92;;
47337;SDS011;33069;51.970;5.892;2023-07-09T09:51:50;27.17;;;24.45;;
47337;SDS011;33069;51.970;5.892;2023-07-09T09:54:18;26.25;;;24.15;;
47337;SDS011;33069;51.970;5.892;2023-07-09T09:56:47;25.85;;;22.60;;
47337;SDS011;33069;51.970;5.892;2023-07-09T09:59:19;25.35;;;23.02;;
47337;SDS011;33069;51.970;5.892;2023-07-09T10:01:46;24.90;;;22.77;;
47337;SDS011;33069;51.970;5.892;2023-07-09T10:04:16;27.30;;;23.45;;
47337;SDS011;33069;51.970;5.892;2023-07-09T10:06:49;24.40;;;22.17;;
47337;SDS011;33069;51.970;5.892;2023-07-09T10:14:51;23.38;;;21.27;;
47337;SDS011;33069;51.970;5.892;2023-07-09T10:17:35;23.55;;;21.48;;
47337;SDS011;33069;51.970;5.892;2023-07-09T10:20:07;23.27;;;20.90;;
47337;SDS011;33069;51.970;5.892;2023-07-09T10:26:15;23.98;;;21.50;;
47337;SDS011;33069;51.970;5.892;2023-07-09T10:33:37;23.42;;;21.38;;
47337;SDS011;33069;51.970;5.892;2023-07-09T10:37:12;23.10;;;21.23;;
47337;SDS011;33069;51.970;5.892;2023-07-09T10:39:10;22.70;;;20.83;;
47337;SDS011;33069;51.970;5.892;2023-07-09T10:41:41;22.80;;;20.80;;
47337;SDS011;33069;51.970;5.892;2023-07-09T10:44:17;22.45;;;20.27;;
47337;SDS011;33069;51.970;5.892;2023-07-09T10:46:45;23.58;;;21.23;;
47337;SDS011;33069;51.970;5.892;2023-07-09T10:49:15;23.05;;;21.00;;
47337;SDS011;33069;51.970;5.892;2023-07-09T10:51:46;23.02;;;21.02;;
47337;SDS011;33069;51.970;5.892;2023-07-09T10:54:32;22.58;;;20.77;;
47337;SDS011;33069;51.970;5.892;2023-07-09T10:57:11;21.77;;;19.65;;
47337;SDS011;33069;51.970;5.892;2023-07-09T10:59:46;21.33;;;19.17;;
47337;SDS011;33069;51.970;5.892;2023-07-09T11:02:21;21.75;;;20.05;;
47337;SDS011;33069;51.970;5.892;2023-07-09T11:07:29;22.42;;;20.52;;
47337;SDS011;33069;51.970;5.892;2023-07-09T11:10:52;24.52;;;21.52;;
47337;SDS011;33069;51.970;5.892;2023-07-09T11:13:12;22.13;;;20.52;;
47337;SDS011;33069;51.970;5.892;2023-07-09T11:15:42;22.90;;;20.77;;
47337;SDS011;33069;51.970;5.892;2023-07-09T11:18:12;21.67;;;19.85;;
47337;SDS011;33069;51.970;5.892;2023-07-09T11:20:55;23.27;;;21.38;;
47337;SDS011;33069;51.970;5.892;2023-07-09T11:23:26;22.08;;;20.20;;
47337;SDS011;33069;51.970;5.892;2023-07-09T11:26:03;22.77;;;20.88;;
47337;SDS011;33069;51.970;5.892;2023-07-09T11:28:56;22.70;;;20.70;;
47337;SDS011;33069;51.970;5.892;2023-07-09T11:31:38;22.75;;;20.75;;
47337;SDS011;33069;51.970;5.892;2023-07-09T11:36:31;23.48;;;21.58;;
47337;SDS011;33069;51.970;5.892;2023-07-09T11:39:00;25.88;;;23.60;;
47337;SDS011;33069;51.970;5.892;2023-07-09T11:44:21;22.25;;;20.27;;
47337;SDS011;33069;51.970;5.892;2023-07-09T11:49:27;22.65;;;20.80;;
47337;SDS011;33069;51.970;5.892;2023-07-09T11:51:59;23.00;;;20.93;;
47337;SDS011;33069;51.970;5.892;2023-07-09T11:54:33;22.83;;;20.77;;
47337;SDS011;33069;51.970;5.892;2023-07-09T11:57:01;22.30;;;20.60;;
47337;SDS011;33069;51.970;5.892;2023-07-09T11:59:28;22.25;;;20.20;;
47337;SDS011;33069;51.970;5.892;2023-07-09T12:01:55;22.15;;;20.27;;
47337;SDS011;33069;51.970;5.892;2023-07-09T12:04:33;21.73;;;20.05;;
47337;SDS011;33069;51.970;5.892;2023-07-09T12:07:00;24.20;;;21.83;;
47337;SDS011;33069;51.970;5.892;2023-07-09T12:09:36;24.08;;;21.88;;
47337;SDS011;33069;51.970;5.892;2023-07-09T12:15:04;23.33;;;21.35;;
47337;SDS011;33069;51.970;5.892;2023-07-09T12:17:41;23.65;;;21.73;;
47337;SDS011;33069;51.970;5.892;2023-07-09T12:20:07;24.25;;;21.92;;
47337;SDS011;33069;51.970;5.892;2023-07-09T12:22:33;24.42;;;22.40;;
47337;SDS011;33069;51.970;5.892;2023-07-09T12:24:59;23.27;;;21.30;;
47337;SDS011;33069;51.970;5.892;2023-07-09T12:27:26;23.48;;;21.33;;
47337;SDS011;33069;51.970;5.892;2023-07-09T12:30:02;22.60;;;20.73;;
47337;SDS011;33069;51.970;5.892;2023-07-09T12:32:29;23.90;;;21.85;;
47337;SDS011;33069;51.970;5.892;2023-07-09T12:34:55;24.13;;;21.83;;
47337;SDS011;33069;51.970;5.892;2023-07-09T12:37:22;23.80;;;21.75;;
47337;SDS011;33069;51.970;5.892;2023-07-09T12:39:53;32.95;;;22.35;;
47337;SDS011;33069;51.970;5.892;2023-07-09T12:42:21;23.92;;;21.70;;
47337;SDS011;33069;51.970;5.892;2023-07-09T12:44:54;23.88;;;21.63;;
47337;SDS011;33069;51.970;5.892;2023-07-09T12:47:20;22.85;;;20.83;;
47337;SDS011;33069;51.970;5.892;2023-07-09T12:49:50;23.75;;;21.90;;
47337;SDS011;33069;51.970;5.892;2023-07-09T12:52:25;23.90;;;21.80;;
47337;SDS011;33069;51.970;5.892;2023-07-09T12:54:51;24.38;;;21.83;;
47337;SDS011;33069;51.970;5.892;2023-07-09T12:57:22;22.38;;;20.40;;
47337;SDS011;33069;51.970;5.892;2023-07-09T12:59:49;23.75;;;21.55;;
47337;SDS011;33069;51.970;5.892;2023-07-09T13:02:28;22.17;;;20.48;;
47337;SDS011;33069;51.970;5.892;2023-07-09T13:05:04;22.92;;;21.13;;
47337;SDS011;33069;51.970;5.892;2023-07-09T13:07:42;22.63;;;20.73;;
47337;SDS011;33069;51.970;5.892;2023-07-09T13:10:16;23.45;;;21.15;;
47337;SDS011;33069;51.970;5.892;2023-07-09T13:12:45;22.70;;;20.55;;
47337;SDS011;33069;51.970;5.892;2023-07-09T13:15:29;23.23;;;21.17;;
47337;SDS011;33069;51.970;5.892;2023-07-09T13:18:05;22.77;;;20.73;;
47337;SDS011;33069;51.970;5.892;2023-07-09T13:20:33;22.92;;;20.88;;
47337;SDS011;33069;51.970;5.892;2023-07-09T13:23:24;22.50;;;20.67;;
47337;SDS011;33069;51.970;5.892;2023-07-09T13:25:55;24.15;;;21.65;;
47337;SDS011;33069;51.970;5.892;2023-07-09T13:28:25;23.45;;;21.30;;
47337;SDS011;33069;51.970;5.892;2023-07-09T13:30:57;24.67;;;22.52;;
47337;SDS011;33069;51.970;5.892;2023-07-09T13:33:25;23.65;;;21.75;;
47337;SDS011;33069;51.970;5.892;2023-07-09T13:35:51;23.30;;;21.33;;
47337;SDS011;33069;51.970;5.892;2023-07-09T13:38:20;22.63;;;20.92;;
47337;SDS011;33069;51.970;5.892;2023-07-09T13:40:49;22.73;;;21.02;;
47337;SDS011;33069;51.970;5.892;2023-07-09T13:45:59;22.92;;;20.80;;
47337;SDS011;33069;51.970;5.892;2023-07-09T13:48:26;22.85;;;20.77;;
47337;SDS011;33069;51.970;5.892;2023-07-09T13:50:53;23.00;;;21.20;;
47337;SDS011;33069;51.970;5.892;2023-07-09T13:53:20;22.42;;;20.58;;
47337;SDS011;33069;51.970;5.892;2023-07-09T13:55:54;23.38;;;21.45;;
47337;SDS011;33069;51.970;5.892;2023-07-09T13:58:21;22.70;;;20.67;;
47337;SDS011;33069;51.970;5.892;2023-07-09T14:00:50;23.27;;;20.98;;
47337;SDS011;33069;51.970;5.892;2023-07-09T14:03:26;23.55;;;21.42;;
47337;SDS011;33069;51.970;5.892;2023-07-09T14:05:55;23.80;;;21.60;;
47337;SDS011;33069;51.970;5.892;2023-07-09T14:08:21;30.95;;;28.33;;
47337;SDS011;33069;51.970;5.892;2023-07-09T14:10:48;30.85;;;28.33;;
47337;SDS011;33069;51.970;5.892;2023-07-09T14:13:18;26.92;;;24.30;;
47337;SDS011;33069;51.970;5.892;2023-07-09T14:15:48;42.10;;;38.72;;
47337;SDS011;33069;51.970;5.892;2023-07-09T14:18:16;32.15;;;29.23;;
47337;SDS011;33069;51.970;5.892;2023-07-09T14:20:44;29.45;;;26.67;;
47337;SDS011;33069;51.970;5.892;2023-07-09T14:23:11;40.55;;;37.58;;
47337;SDS011;33069;51.970;5.892;2023-07-09T14:25:39;27.48;;;24.85;;
47337;SDS011;33069;51.970;5.892;2023-07-09T14:28:10;26.95;;;24.13;;
47337;SDS011;33069;51.970;5.892;2023-07-09T14:30:37;26.75;;;24.08;;
47337;SDS011;33069;51.970;5.892;2023-07-09T14:33:04;28.05;;;25.27;;
47337;SDS011;33069;51.970;5.892;2023-07-09T14:35:34;27.25;;;23.83;;
47337;SDS011;33069;51.970;5.892;2023-07-09T14:38:01;26.60;;;24.17;;
47337;SDS011;33069;51.970;5.892;2023-07-09T14:40:29;25.67;;;23.30;;
47337;SDS011;33069;51.970;5.892;2023-07-09T14:42:55;27.10;;;24.55;;
47337;SDS011;33069;51.970;5.892;2023-07-09T14:45:23;26.23;;;23.83;;
47337;SDS011;33069;51.970;5.892;2023-07-09T14:47:51;28.48;;;25.83;;
47337;SDS011;33069;51.970;5.892;2023-07-09T14:50:18;25.65;;;23.33;;
47337;SDS011;33069;51.970;5.892;2023-07-09T14:52:45;25.42;;;23.17;;
47337;SDS011;33069;51.970;5.892;2023-07-09T14:55:17;26.15;;;23.80;;
47337;SDS011;33069;51.970;5.892;2023-07-09T14:57:45;26.00;;;23.25;;
47337;SDS011;33069;51.970;5.892;2023-07-09T15:00:21;29.40;;;26.95;;
47337;SDS011;33069;51.970;5.892;2023-07-09T15:02:49;27.58;;;24.48;;
47337;SDS011;33069;51.970;5.892;2023-07-09T15:05:21;23.65;;;21.52;;
47337;SDS011;33069;51.970;5.892;2023-07-09T15:07:48;21.08;;;19.38;;
47337;SDS011;33069;51.970;5.892;2023-07-09T15:10:17;36.15;;;33.72;;
47337;SDS011;33069;51.970;5.892;2023-07-09T15:12:47;24.67;;;22.67;;
47337;SDS011;33069;51.970;5.892;2023-07-09T15:17:45;27.00;;;24.17;;
47337;SDS011;33069;51.970;5.892;2023-07-09T15:20:12;20.92;;;18.90;;